sensor_id;sensor_type;location;lat;lon;timestamp;P1;durP1;ratioP1;P2;durP2;ratioP2
18853;SDS011;9556;49.374;19.446;2022-08-19T00:00:36;33.97;;;21.90;;
18853;SDS011;9556;49.374;19.446;2022-08-19T00:03:04;30.13;;;20.60;;
18853;SDS011;9556;49.374;19.446;2022-08-19T00:05:31;30.07;;;21.70;;
18853;SDS011;9556;49.374;19.446;2022-08-19T00:07:59;30.23;;;21.50;;
18853;SDS011;9556;49.374;19.446;2022-08-19T00:10:26;31.07;;;21.40;;
18853;SDS011;9556;49.374;19.446;2022-08-19T00:12:53;31.20;;;21.43;;
18853;SDS011;9556;49.374;19.446;2022-08-19T00:15:21;33.10;;;20.97;;
18853;SDS011;9556;49.374;19.446;2022-08-19T00:17:48;29.57;;;20.17;;
18853;SDS011;9556;49.374;19.446;2022-08-19T00:20:17;33.50;;;20.40;;
18853;SDS011;9556;49.374;19.446;2022-08-19T00:22:45;30.50;;;21.27;;
18853;SDS011;9556;49.374;19.446;2022-08-19T00:25:13;33.50;;;21.53;;
18853;SDS011;9556;49.374;19.446;2022-08-19T00:27:40;31.20;;;20.03;;
18853;SDS011;9556;49.374;19.446;2022-08-19T00:30:08;30.60;;;20.97;;
18853;SDS011;9556;49.374;19.446;2022-08-19T00:32:37;31.07;;;21.73;;
18853;SDS011;9556;49.374;19.446;2022-08-19T00:35:05;32.60;;;20.30;;
18853;SDS011;9556;49.374;19.446;2022-08-19T00:37:32;27.57;;;21.23;;
18853;SDS011;9556;49.374;19.446;2022-08-19T00:40:00;28.83;;;21.70;;
18853;SDS011;9556;49.374;19.446;2022-08-19T00:42:28;32.77;;;21.93;;
18853;SDS011;9556;49.374;19.446;2022-08-19T00:44:55;32.47;;;20.83;;
18853;SDS011;9556;49.374;19.446;2022-08-19T00:47:22;33.03;;;21.83;;
18853;SDS011;9556;49.374;19.446;2022-08-19T00:49:52;34.20;;;21.77;;
18853;SDS011;9556;49.374;19.446;2022-08-19T00:52:20;35.90;;;21.73;;
18853;SDS011;9556;49.374;19.446;2022-08-19T00:54:48;31.10;;;21.57;;
18853;SDS011;9556;49.374;19.446;2022-08-19T00:57:17;34.27;;;21.30;;
18853;SDS011;9556;49.374;19.446;2022-08-19T00:59:46;34.53;;;20.03;;
18853;SDS011;9556;49.374;19.446;2022-08-19T01:02:14;32.57;;;21.90;;
18853;SDS011;9556;49.374;19.446;2022-08-19T01:04:42;29.93;;;20.00;;
18853;SDS011;9556;49.374;19.446;2022-08-19T01:07:10;33.53;;;21.33;;
18853;SDS011;9556;49.374;19.446;2022-08-19T01:09:37;30.37;;;21.50;;
18853;SDS011;9556;49.374;19.446;2022-08-19T01:12:04;36.20;;;22.67;;
18853;SDS011;9556;49.374;19.446;2022-08-19T01:14:32;34.73;;;21.83;;
18853;SDS011;9556;49.374;19.446;2022-08-19T01:16:59;32.27;;;22.30;;
18853;SDS011;9556;49.374;19.446;2022-08-19T01:19:27;33.57;;;23.17;;
18853;SDS011;9556;49.374;19.446;2022-08-19T01:21:55;33.33;;;23.13;;
18853;SDS011;9556;49.374;19.446;2022-08-19T01:24:26;32.97;;;22.30;;
18853;SDS011;9556;49.374;19.446;2022-08-19T01:26:53;36.60;;;21.03;;
18853;SDS011;9556;49.374;19.446;2022-08-19T01:29:20;32.90;;;22.50;;
18853;SDS011;9556;49.374;19.446;2022-08-19T01:31:47;37.07;;;22.23;;
18853;SDS011;9556;49.374;19.446;2022-08-19T01:34:18;32.53;;;22.77;;
18853;SDS011;9556;49.374;19.446;2022-08-19T01:36:46;34.97;;;21.80;;
18853;SDS011;9556;49.374;19.446;2022-08-19T01:39:14;38.40;;;23.17;;
18853;SDS011;9556;49.374;19.446;2022-08-19T01:41:43;33.37;;;21.97;;
18853;SDS011;9556;49.374;19.446;2022-08-19T01:44:10;42.93;;;21.60;;
18853;SDS011;9556;49.374;19.446;2022-08-19T01:46:38;35.13;;;22.50;;
18853;SDS011;9556;49.374;19.446;2022-08-19T01:49:05;35.03;;;22.03;;
18853;SDS011;9556;49.374;19.446;2022-08-19T01:51:33;32.87;;;21.73;;
18853;SDS011;9556;49.374;19.446;2022-08-19T01:54:00;39.90;;;22.63;;
18853;SDS011;9556;49.374;19.446;2022-08-19T01:56:27;33.37;;;22.63;;
18853;SDS011;9556;49.374;19.446;2022-08-19T01:58:57;35.07;;;22.27;;
18853;SDS011;9556;49.374;19.446;2022-08-19T02:01:24;29.30;;;21.47;;
18853;SDS011;9556;49.374;19.446;2022-08-19T02:03:51;29.77;;;22.23;;
18853;SDS011;9556;49.374;19.446;2022-08-19T02:06:19;29.17;;;20.67;;
18853;SDS011;9556;49.374;19.446;2022-08-19T02:08:47;28.97;;;21.10;;
18853;SDS011;9556;49.374;19.446;2022-08-19T02:11:18;32.93;;;21.80;;
18853;SDS011;9556;49.374;19.446;2022-08-19T02:13:45;30.80;;;21.97;;
18853;SDS011;9556;49.374;19.446;2022-08-19T02:16:13;38.27;;;22.77;;
18853;SDS011;9556;49.374;19.446;2022-08-19T02:18:41;37.07;;;22.87;;
18853;SDS011;9556;49.374;19.446;2022-08-19T02:21:08;34.80;;;22.87;;
18853;SDS011;9556;49.374;19.446;2022-08-19T02:23:35;33.87;;;23.40;;
18853;SDS011;9556;49.374;19.446;2022-08-19T02:26:02;38.43;;;23.03;;
18853;SDS011;9556;49.374;19.446;2022-08-19T02:28:29;34.67;;;23.40;;
18853;SDS011;9556;49.374;19.446;2022-08-19T02:30:57;33.30;;;20.77;;
18853;SDS011;9556;49.374;19.446;2022-08-19T02:33:27;34.33;;;21.20;;
18853;SDS011;9556;49.374;19.446;2022-08-19T02:35:54;31.50;;;22.07;;
18853;SDS011;9556;49.374;19.446;2022-08-19T02:38:21;38.67;;;23.17;;
18853;SDS011;9556;49.374;19.446;2022-08-19T02:40:50;31.23;;;20.93;;
18853;SDS011;9556;49.374;19.446;2022-08-19T02:43:18;36.57;;;22.87;;
18853;SDS011;9556;49.374;19.446;2022-08-19T02:45:46;36.77;;;23.70;;
18853;SDS011;9556;49.374;19.446;2022-08-19T02:48:14;35.63;;;23.93;;
18853;SDS011;9556;49.374;19.446;2022-08-19T02:50:43;42.10;;;24.30;;
18853;SDS011;9556;49.374;19.446;2022-08-19T02:53:11;34.57;;;24.47;;
18853;SDS011;9556;49.374;19.446;2022-08-19T02:55:42;36.50;;;24.80;;
18853;SDS011;9556;49.374;19.446;2022-08-19T02:58:09;34.07;;;22.53;;
18853;SDS011;9556;49.374;19.446;2022-08-19T03:00:40;39.03;;;23.03;;
18853;SDS011;9556;49.374;19.446;2022-08-19T03:03:08;32.67;;;21.73;;
18853;SDS011;9556;49.374;19.446;2022-08-19T03:05:35;30.83;;;21.97;;
18853;SDS011;9556;49.374;19.446;2022-08-19T03:08:04;31.57;;;22.13;;
18853;SDS011;9556;49.374;19.446;2022-08-19T03:10:31;35.27;;;22.37;;
18853;SDS011;9556;49.374;19.446;2022-08-19T03:12:58;36.90;;;23.97;;
18853;SDS011;9556;49.374;19.446;2022-08-19T03:15:25;38.60;;;24.83;;
18853;SDS011;9556;49.374;19.446;2022-08-19T03:17:52;36.10;;;23.67;;
18853;SDS011;9556;49.374;19.446;2022-08-19T03:20:19;38.73;;;23.10;;
18853;SDS011;9556;49.374;19.446;2022-08-19T03:22:46;37.27;;;24.27;;
18853;SDS011;9556;49.374;19.446;2022-08-19T03:25:15;34.53;;;23.37;;
18853;SDS011;9556;49.374;19.446;2022-08-19T03:27:42;36.70;;;26.27;;
18853;SDS011;9556;49.374;19.446;2022-08-19T03:30:10;42.80;;;25.30;;
18853;SDS011;9556;49.374;19.446;2022-08-19T03:32:38;35.07;;;24.07;;
18853;SDS011;9556;49.374;19.446;2022-08-19T03:35:05;41.50;;;25.37;;
18853;SDS011;9556;49.374;19.446;2022-08-19T03:37:33;43.23;;;26.53;;
18853;SDS011;9556;49.374;19.446;2022-08-19T03:40:00;37.23;;;25.03;;
18853;SDS011;9556;49.374;19.446;2022-08-19T03:42:30;46.33;;;25.23;;
18853;SDS011;9556;49.374;19.446;2022-08-19T03:44:57;37.67;;;24.90;;
18853;SDS011;9556;49.374;19.446;2022-08-19T03:47:24;41.60;;;25.57;;
18853;SDS011;9556;49.374;19.446;2022-08-19T03:49:51;38.97;;;25.03;;
18853;SDS011;9556;49.374;19.446;2022-08-19T03:52:18;40.37;;;25.67;;
18853;SDS011;9556;49.374;19.446;2022-08-19T03:54:45;39.87;;;25.07;;
18853;SDS011;9556;49.374;19.446;2022-08-19T03:57:12;43.90;;;25.77;;
18853;SDS011;9556;49.374;19.446;2022-08-19T03:59:41;38.53;;;25.60;;
18853;SDS011;9556;49.374;19.446;2022-08-19T04:02:10;37.67;;;24.20;;
18853;SDS011;9556;49.374;19.446;2022-08-19T04:04:37;42.93;;;25.63;;
18853;SDS011;9556;49.374;19.446;2022-08-19T04:07:05;39.53;;;25.73;;
18853;SDS011;9556;49.374;19.446;2022-08-19T04:09:33;38.17;;;26.60;;
18853;SDS011;9556;49.374;19.446;2022-08-19T04:12:01;42.57;;;26.80;;
18853;SDS011;9556;49.374;19.446;2022-08-19T04:14:30;44.70;;;25.07;;
18853;SDS011;9556;49.374;19.446;2022-08-19T04:17:00;42.10;;;26.27;;
18853;SDS011;9556;49.374;19.446;2022-08-19T04:19:29;39.47;;;25.07;;
18853;SDS011;9556;49.374;19.446;2022-08-19T04:21:57;36.00;;;25.17;;
18853;SDS011;9556;49.374;19.446;2022-08-19T04:24:24;35.30;;;23.03;;
18853;SDS011;9556;49.374;19.446;2022-08-19T04:26:51;42.93;;;25.40;;
18853;SDS011;9556;49.374;19.446;2022-08-19T04:29:20;41.63;;;25.27;;
18853;SDS011;9556;49.374;19.446;2022-08-19T04:31:49;42.57;;;25.73;;
18853;SDS011;9556;49.374;19.446;2022-08-19T04:34:21;38.83;;;25.40;;
18853;SDS011;9556;49.374;19.446;2022-08-19T04:36:49;41.17;;;25.73;;
18853;SDS011;9556;49.374;19.446;2022-08-19T04:39:17;38.23;;;25.53;;
18853;SDS011;9556;49.374;19.446;2022-08-19T04:41:45;37.07;;;24.47;;
18853;SDS011;9556;49.374;19.446;2022-08-19T04:44:30;40.43;;;24.93;;
18853;SDS011;9556;49.374;19.446;2022-08-19T04:46:57;38.10;;;25.67;;
18853;SDS011;9556;49.374;19.446;2022-08-19T04:49:26;37.07;;;24.80;;
18853;SDS011;9556;49.374;19.446;2022-08-19T04:51:53;38.23;;;25.07;;
18853;SDS011;9556;49.374;19.446;2022-08-19T04:54:21;34.27;;;23.90;;
18853;SDS011;9556;49.374;19.446;2022-08-19T04:56:50;34.83;;;24.33;;
18853;SDS011;9556;49.374;19.446;2022-08-19T04:59:17;30.33;;;22.57;;
18853;SDS011;9556;49.374;19.446;2022-08-19T05:01:45;31.27;;;22.50;;
18853;SDS011;9556;49.374;19.446;2022-08-19T05:04:15;34.70;;;22.97;;
18853;SDS011;9556;49.374;19.446;2022-08-19T05:06:44;31.17;;;21.10;;
18853;SDS011;9556;49.374;19.446;2022-08-19T05:09:12;37.30;;;21.67;;
18853;SDS011;9556;49.374;19.446;2022-08-19T05:11:40;34.50;;;22.23;;
18853;SDS011;9556;49.374;19.446;2022-08-19T05:14:08;31.43;;;22.87;;
18853;SDS011;9556;49.374;19.446;2022-08-19T05:16:37;31.97;;;21.33;;
18853;SDS011;9556;49.374;19.446;2022-08-19T05:19:04;29.70;;;21.30;;
18853;SDS011;9556;49.374;19.446;2022-08-19T05:21:50;32.30;;;22.53;;
18853;SDS011;9556;49.374;19.446;2022-08-19T05:24:35;32.97;;;22.90;;
18853;SDS011;9556;49.374;19.446;2022-08-19T05:27:02;36.70;;;22.43;;
18853;SDS011;9556;49.374;19.446;2022-08-19T05:29:30;34.80;;;21.07;;
18853;SDS011;9556;49.374;19.446;2022-08-19T05:31:59;27.87;;;21.23;;
18853;SDS011;9556;49.374;19.446;2022-08-19T05:34:26;28.93;;;19.90;;
18853;SDS011;9556;49.374;19.446;2022-08-19T05:36:56;28.43;;;19.00;;
18853;SDS011;9556;49.374;19.446;2022-08-19T05:39:24;27.57;;;19.13;;
18853;SDS011;9556;49.374;19.446;2022-08-19T05:41:54;32.47;;;19.23;;
18853;SDS011;9556;49.374;19.446;2022-08-19T05:44:22;26.17;;;19.00;;
18853;SDS011;9556;49.374;19.446;2022-08-19T05:46:50;27.50;;;18.17;;
18853;SDS011;9556;49.374;19.446;2022-08-19T05:49:19;27.47;;;19.27;;
18853;SDS011;9556;49.374;19.446;2022-08-19T05:51:46;28.43;;;19.17;;
18853;SDS011;9556;49.374;19.446;2022-08-19T05:54:15;28.50;;;19.77;;
18853;SDS011;9556;49.374;19.446;2022-08-19T05:56:42;25.83;;;19.27;;
18853;SDS011;9556;49.374;19.446;2022-08-19T05:59:12;32.73;;;19.93;;
18853;SDS011;9556;49.374;19.446;2022-08-19T06:01:42;27.10;;;19.77;;
18853;SDS011;9556;49.374;19.446;2022-08-19T06:04:09;27.43;;;19.40;;
18853;SDS011;9556;49.374;19.446;2022-08-19T06:06:37;24.40;;;19.03;;
18853;SDS011;9556;49.374;19.446;2022-08-19T06:09:05;32.90;;;19.50;;
18853;SDS011;9556;49.374;19.446;2022-08-19T06:11:34;27.07;;;19.03;;
18853;SDS011;9556;49.374;19.446;2022-08-19T06:14:02;28.30;;;18.80;;
18853;SDS011;9556;49.374;19.446;2022-08-19T06:16:30;28.20;;;19.77;;
18853;SDS011;9556;49.374;19.446;2022-08-19T06:19:00;29.20;;;19.77;;
18853;SDS011;9556;49.374;19.446;2022-08-19T06:21:28;32.17;;;19.87;;
18853;SDS011;9556;49.374;19.446;2022-08-19T06:23:55;30.73;;;19.67;;
18853;SDS011;9556;49.374;19.446;2022-08-19T06:26:23;30.10;;;19.17;;
18853;SDS011;9556;49.374;19.446;2022-08-19T06:28:52;30.48;;;20.05;;
18853;SDS011;9556;49.374;19.446;2022-08-19T06:31:23;26.17;;;19.77;;
18853;SDS011;9556;49.374;19.446;2022-08-19T06:33:50;32.30;;;20.10;;
18853;SDS011;9556;49.374;19.446;2022-08-19T06:36:19;32.67;;;19.13;;
18853;SDS011;9556;49.374;19.446;2022-08-19T06:38:46;27.75;;;19.38;;
18853;SDS011;9556;49.374;19.446;2022-08-19T06:41:13;28.90;;;20.27;;
18853;SDS011;9556;49.374;19.446;2022-08-19T06:43:41;27.52;;;19.38;;
18853;SDS011;9556;49.374;19.446;2022-08-19T06:46:11;32.15;;;18.85;;
18853;SDS011;9556;49.374;19.446;2022-08-19T06:48:38;28.15;;;19.17;;
18853;SDS011;9556;49.374;19.446;2022-08-19T06:51:05;27.63;;;19.38;;
18853;SDS011;9556;49.374;19.446;2022-08-19T06:53:33;27.92;;;19.63;;
18853;SDS011;9556;49.374;19.446;2022-08-19T06:56:00;25.25;;;18.35;;
18853;SDS011;9556;49.374;19.446;2022-08-19T06:58:28;29.60;;;17.55;;
18853;SDS011;9556;49.374;19.446;2022-08-19T07:00:58;37.78;;;18.38;;
18853;SDS011;9556;49.374;19.446;2022-08-19T07:03:29;29.45;;;17.02;;
18853;SDS011;9556;49.374;19.446;2022-08-19T07:05:57;44.75;;;17.95;;
18853;SDS011;9556;49.374;19.446;2022-08-19T07:08:25;26.95;;;17.90;;
18853;SDS011;9556;49.374;19.446;2022-08-19T07:10:52;25.20;;;17.48;;
18853;SDS011;9556;49.374;19.446;2022-08-19T07:13:19;26.00;;;16.33;;
18853;SDS011;9556;49.374;19.446;2022-08-19T07:15:47;25.98;;;15.68;;
18853;SDS011;9556;49.374;19.446;2022-08-19T07:18:15;21.45;;;15.95;;
18853;SDS011;9556;49.374;19.446;2022-08-19T07:20:44;26.20;;;16.30;;
18853;SDS011;9556;49.374;19.446;2022-08-19T07:23:11;24.10;;;16.45;;
18853;SDS011;9556;49.374;19.446;2022-08-19T07:25:39;25.08;;;16.02;;
18853;SDS011;9556;49.374;19.446;2022-08-19T07:28:07;20.90;;;15.00;;
18853;SDS011;9556;49.374;19.446;2022-08-19T07:30:36;20.30;;;14.73;;
18853;SDS011;9556;49.374;19.446;2022-08-19T07:33:03;21.92;;;15.52;;
18853;SDS011;9556;49.374;19.446;2022-08-19T07:35:30;26.45;;;15.20;;
18853;SDS011;9556;49.374;19.446;2022-08-19T07:38:00;26.25;;;15.32;;
18853;SDS011;9556;49.374;19.446;2022-08-19T07:40:28;26.85;;;15.55;;
18853;SDS011;9556;49.374;19.446;2022-08-19T07:42:55;20.98;;;14.25;;
18853;SDS011;9556;49.374;19.446;2022-08-19T07:45:23;19.92;;;14.68;;
18853;SDS011;9556;49.374;19.446;2022-08-19T07:47:50;22.58;;;15.45;;
18853;SDS011;9556;49.374;19.446;2022-08-19T07:50:18;24.77;;;14.32;;
18853;SDS011;9556;49.374;19.446;2022-08-19T07:52:46;24.05;;;15.48;;
18853;SDS011;9556;49.374;19.446;2022-08-19T07:55:16;22.30;;;15.18;;
18853;SDS011;9556;49.374;19.446;2022-08-19T07:57:44;23.92;;;15.05;;
18853;SDS011;9556;49.374;19.446;2022-08-19T08:00:11;20.65;;;14.82;;
18853;SDS011;9556;49.374;19.446;2022-08-19T08:02:39;20.05;;;14.80;;
18853;SDS011;9556;49.374;19.446;2022-08-19T08:05:07;19.45;;;15.02;;
18853;SDS011;9556;49.374;19.446;2022-08-19T08:07:52;23.60;;;14.23;;
18853;SDS011;9556;49.374;19.446;2022-08-19T08:10:37;18.13;;;13.50;;
18853;SDS011;9556;49.374;19.446;2022-08-19T08:13:04;20.15;;;13.40;;
18853;SDS011;9556;49.374;19.446;2022-08-19T08:15:31;24.48;;;13.68;;
18853;SDS011;9556;49.374;19.446;2022-08-19T08:17:59;21.02;;;13.73;;
18853;SDS011;9556;49.374;19.446;2022-08-19T08:20:26;21.58;;;13.45;;
18853;SDS011;9556;49.374;19.446;2022-08-19T08:22:53;19.45;;;13.40;;
18853;SDS011;9556;49.374;19.446;2022-08-19T08:25:39;19.95;;;13.98;;
18853;SDS011;9556;49.374;19.446;2022-08-19T08:28:06;25.20;;;14.73;;
18853;SDS011;9556;49.374;19.446;2022-08-19T08:30:34;24.55;;;14.52;;
18853;SDS011;9556;49.374;19.446;2022-08-19T08:33:06;26.98;;;14.18;;
18853;SDS011;9556;49.374;19.446;2022-08-19T08:35:33;23.10;;;14.40;;
18853;SDS011;9556;49.374;19.446;2022-08-19T08:38:00;21.67;;;14.43;;
18853;SDS011;9556;49.374;19.446;2022-08-19T08:40:30;23.70;;;13.35;;
18853;SDS011;9556;49.374;19.446;2022-08-19T08:43:02;24.35;;;14.60;;
18853;SDS011;9556;49.374;19.446;2022-08-19T08:45:30;22.15;;;13.02;;
18853;SDS011;9556;49.374;19.446;2022-08-19T08:48:00;23.75;;;13.05;;
18853;SDS011;9556;49.374;19.446;2022-08-19T08:50:29;22.15;;;12.40;;
18853;SDS011;9556;49.374;19.446;2022-08-19T08:53:00;24.85;;;12.60;;
18853;SDS011;9556;49.374;19.446;2022-08-19T08:55:28;22.63;;;13.18;;
18853;SDS011;9556;49.374;19.446;2022-08-19T08:57:59;18.48;;;11.98;;
18853;SDS011;9556;49.374;19.446;2022-08-19T09:00:30;20.25;;;12.88;;
18853;SDS011;9556;49.374;19.446;2022-08-19T09:02:57;19.55;;;12.90;;
18853;SDS011;9556;49.374;19.446;2022-08-19T09:05:26;22.92;;;13.10;;
18853;SDS011;9556;49.374;19.446;2022-08-19T09:07:57;18.83;;;12.60;;
18853;SDS011;9556;49.374;19.446;2022-08-19T09:10:28;20.88;;;13.52;;
18853;SDS011;9556;49.374;19.446;2022-08-19T09:12:57;18.90;;;13.38;;
18853;SDS011;9556;49.374;19.446;2022-08-19T09:15:32;19.92;;;12.55;;
18853;SDS011;9556;49.374;19.446;2022-08-19T09:18:01;18.48;;;11.90;;
18853;SDS011;9556;49.374;19.446;2022-08-19T09:20:29;18.35;;;12.18;;
18853;SDS011;9556;49.374;19.446;2022-08-19T09:22:57;19.00;;;10.90;;
18853;SDS011;9556;49.374;19.446;2022-08-19T09:25:24;27.23;;;11.13;;
18853;SDS011;9556;49.374;19.446;2022-08-19T09:27:52;18.15;;;11.38;;
18853;SDS011;9556;49.374;19.446;2022-08-19T09:30:22;20.67;;;11.25;;
18853;SDS011;9556;49.374;19.446;2022-08-19T09:32:51;21.13;;;11.65;;
18853;SDS011;9556;49.374;19.446;2022-08-19T09:35:19;15.32;;;11.55;;
18853;SDS011;9556;49.374;19.446;2022-08-19T09:37:47;16.27;;;11.73;;
18853;SDS011;9556;49.374;19.446;2022-08-19T09:40:14;21.85;;;11.93;;
18853;SDS011;9556;49.374;19.446;2022-08-19T09:42:42;22.85;;;11.82;;
18853;SDS011;9556;49.374;19.446;2022-08-19T09:45:12;17.10;;;11.35;;
18853;SDS011;9556;49.374;19.446;2022-08-19T09:47:39;18.60;;;11.30;;
18853;SDS011;9556;49.374;19.446;2022-08-19T09:50:09;19.35;;;12.10;;
18853;SDS011;9556;49.374;19.446;2022-08-19T09:52:36;19.30;;;11.55;;
18853;SDS011;9556;49.374;19.446;2022-08-19T09:55:04;16.08;;;11.32;;
18853;SDS011;9556;49.374;19.446;2022-08-19T09:57:31;17.27;;;10.75;;
18853;SDS011;9556;49.374;19.446;2022-08-19T09:59:58;20.02;;;11.18;;
18853;SDS011;9556;49.374;19.446;2022-08-19T10:02:25;18.95;;;10.27;;
18853;SDS011;9556;49.374;19.446;2022-08-19T10:04:52;18.90;;;9.48;;
18853;SDS011;9556;49.374;19.446;2022-08-19T10:07:38;15.68;;;9.05;;
18853;SDS011;9556;49.374;19.446;2022-08-19T10:10:06;14.45;;;9.70;;
18853;SDS011;9556;49.374;19.446;2022-08-19T10:12:34;17.40;;;10.18;;
18853;SDS011;9556;49.374;19.446;2022-08-19T10:15:02;11.38;;;8.98;;
18853;SDS011;9556;49.374;19.446;2022-08-19T10:17:29;13.57;;;9.43;;
18853;SDS011;9556;49.374;19.446;2022-08-19T10:20:00;14.57;;;9.15;;
18853;SDS011;9556;49.374;19.446;2022-08-19T10:22:29;16.90;;;9.05;;
18853;SDS011;9556;49.374;19.446;2022-08-19T10:24:57;20.52;;;9.88;;
18853;SDS011;9556;49.374;19.446;2022-08-19T10:27:24;13.88;;;8.57;;
18853;SDS011;9556;49.374;19.446;2022-08-19T10:29:51;12.75;;;8.65;;
18853;SDS011;9556;49.374;19.446;2022-08-19T10:32:19;15.52;;;9.95;;
18853;SDS011;9556;49.374;19.446;2022-08-19T10:34:46;21.08;;;9.07;;
18853;SDS011;9556;49.374;19.446;2022-08-19T10:37:17;26.75;;;15.73;;
18853;SDS011;9556;49.374;19.446;2022-08-19T10:39:45;23.05;;;15.57;;
18853;SDS011;9556;49.374;19.446;2022-08-19T10:42:14;12.55;;;8.80;;
18853;SDS011;9556;49.374;19.446;2022-08-19T10:44:43;18.75;;;9.80;;
18853;SDS011;9556;49.374;19.446;2022-08-19T10:47:11;10.55;;;8.02;;
18853;SDS011;9556;49.374;19.446;2022-08-19T10:49:38;23.10;;;8.45;;
18853;SDS011;9556;49.374;19.446;2022-08-19T10:52:19;12.57;;;8.20;;
18853;SDS011;9556;49.374;19.446;2022-08-19T10:55:02;14.88;;;8.50;;
18853;SDS011;9556;49.374;19.446;2022-08-19T10:57:49;17.65;;;8.73;;
18853;SDS011;9556;49.374;19.446;2022-08-19T11:00:17;11.63;;;7.80;;
18853;SDS011;9556;49.374;19.446;2022-08-19T11:02:45;16.42;;;7.75;;
18853;SDS011;9556;49.374;19.446;2022-08-19T11:05:12;14.60;;;8.48;;
18853;SDS011;9556;49.374;19.446;2022-08-19T11:07:40;17.55;;;8.45;;
18853;SDS011;9556;49.374;19.446;2022-08-19T11:10:08;11.85;;;7.88;;
18853;SDS011;9556;49.374;19.446;2022-08-19T11:12:36;13.35;;;7.35;;
18853;SDS011;9556;49.374;19.446;2022-08-19T11:15:06;13.32;;;8.10;;
18853;SDS011;9556;49.374;19.446;2022-08-19T11:17:35;15.60;;;7.85;;
18853;SDS011;9556;49.374;19.446;2022-08-19T11:20:05;17.73;;;8.20;;
18853;SDS011;9556;49.374;19.446;2022-08-19T11:22:33;14.75;;;7.72;;
18853;SDS011;9556;49.374;19.446;2022-08-19T11:25:01;15.20;;;6.60;;
18853;SDS011;9556;49.374;19.446;2022-08-19T11:27:28;10.13;;;5.95;;
18853;SDS011;9556;49.374;19.446;2022-08-19T11:29:55;16.67;;;6.90;;
18853;SDS011;9556;49.374;19.446;2022-08-19T11:32:24;13.60;;;6.85;;
18853;SDS011;9556;49.374;19.446;2022-08-19T11:34:52;10.52;;;6.50;;
18853;SDS011;9556;49.374;19.446;2022-08-19T11:37:19;14.77;;;6.43;;
18853;SDS011;9556;49.374;19.446;2022-08-19T11:39:46;13.00;;;6.80;;
18853;SDS011;9556;49.374;19.446;2022-08-19T11:42:13;14.63;;;7.40;;
18853;SDS011;9556;49.374;19.446;2022-08-19T11:44:58;13.02;;;7.13;;
18853;SDS011;9556;49.374;19.446;2022-08-19T11:49:31;15.70;;;7.47;;
18853;SDS011;9556;49.374;19.446;2022-08-19T11:52:01;14.68;;;7.32;;
18853;SDS011;9556;49.374;19.446;2022-08-19T11:54:28;13.30;;;7.00;;
18853;SDS011;9556;49.374;19.446;2022-08-19T11:56:55;16.10;;;6.65;;
18853;SDS011;9556;49.374;19.446;2022-08-19T11:59:22;13.38;;;6.57;;
18853;SDS011;9556;49.374;19.446;2022-08-19T12:01:51;14.93;;;6.55;;
18853;SDS011;9556;49.374;19.446;2022-08-19T12:04:18;17.83;;;6.50;;
18853;SDS011;9556;49.374;19.446;2022-08-19T12:06:47;15.98;;;6.60;;
18853;SDS011;9556;49.374;19.446;2022-08-19T12:09:15;18.13;;;6.40;;
18853;SDS011;9556;49.374;19.446;2022-08-19T12:11:43;15.60;;;6.40;;
18853;SDS011;9556;49.374;19.446;2022-08-19T12:14:12;14.15;;;6.10;;
18853;SDS011;9556;49.374;19.446;2022-08-19T12:16:39;14.95;;;5.82;;
18853;SDS011;9556;49.374;19.446;2022-08-19T12:19:06;12.50;;;5.93;;
18853;SDS011;9556;49.374;19.446;2022-08-19T12:26:17;8.15;;;6.00;;
18853;SDS011;9556;49.374;19.446;2022-08-19T12:28:45;9.65;;;6.00;;
18853;SDS011;9556;49.374;19.446;2022-08-19T12:31:13;11.68;;;6.15;;
18853;SDS011;9556;49.374;19.446;2022-08-19T12:33:40;14.55;;;6.03;;
18853;SDS011;9556;49.374;19.446;2022-08-19T12:36:10;12.75;;;5.65;;
18853;SDS011;9556;49.374;19.446;2022-08-19T12:38:37;13.32;;;6.20;;
18853;SDS011;9556;49.374;19.446;2022-08-19T12:41:05;9.38;;;5.82;;
18853;SDS011;9556;49.374;19.446;2022-08-19T12:43:34;12.30;;;6.05;;
18853;SDS011;9556;49.374;19.446;2022-08-19T12:46:02;9.75;;;5.70;;
18853;SDS011;9556;49.374;19.446;2022-08-19T12:48:30;15.32;;;5.60;;
18853;SDS011;9556;49.374;19.446;2022-08-19T12:50:57;9.93;;;5.50;;
18853;SDS011;9556;49.374;19.446;2022-08-19T12:53:24;11.50;;;5.53;;
18853;SDS011;9556;49.374;19.446;2022-08-19T12:55:54;14.27;;;5.72;;
18853;SDS011;9556;49.374;19.446;2022-08-19T12:58:21;17.20;;;6.38;;
18853;SDS011;9556;49.374;19.446;2022-08-19T13:00:50;12.00;;;5.50;;
18853;SDS011;9556;49.374;19.446;2022-08-19T13:03:17;9.38;;;5.25;;
18853;SDS011;9556;49.374;19.446;2022-08-19T13:05:44;10.90;;;4.68;;
18853;SDS011;9556;49.374;19.446;2022-08-19T13:08:12;10.85;;;5.00;;
18853;SDS011;9556;49.374;19.446;2022-08-19T13:10:39;10.10;;;5.00;;
18853;SDS011;9556;49.374;19.446;2022-08-19T13:13:07;12.68;;;5.13;;
18853;SDS011;9556;49.374;19.446;2022-08-19T13:15:36;11.50;;;5.07;;
18853;SDS011;9556;49.374;19.446;2022-08-19T13:18:06;13.27;;;5.00;;
18853;SDS011;9556;49.374;19.446;2022-08-19T13:20:34;13.98;;;5.43;;
18853;SDS011;9556;49.374;19.446;2022-08-19T13:23:01;28.55;;;5.85;;
18853;SDS011;9556;49.374;19.446;2022-08-19T13:25:29;15.43;;;5.93;;
18853;SDS011;9556;49.374;19.446;2022-08-19T13:27:56;12.63;;;5.35;;
18853;SDS011;9556;49.374;19.446;2022-08-19T13:30:23;16.42;;;5.63;;
18853;SDS011;9556;49.374;19.446;2022-08-19T13:33:09;13.48;;;6.13;;
18853;SDS011;9556;49.374;19.446;2022-08-19T13:35:37;11.65;;;5.43;;
18853;SDS011;9556;49.374;19.446;2022-08-19T13:38:04;15.40;;;5.32;;
18853;SDS011;9556;49.374;19.446;2022-08-19T13:40:32;11.77;;;5.40;;
18853;SDS011;9556;49.374;19.446;2022-08-19T13:42:59;10.48;;;4.68;;
18853;SDS011;9556;49.374;19.446;2022-08-19T13:45:28;9.30;;;4.70;;
18853;SDS011;9556;49.374;19.446;2022-08-19T13:47:57;11.35;;;4.75;;
18853;SDS011;9556;49.374;19.446;2022-08-19T13:50:27;14.38;;;4.32;;
18853;SDS011;9556;49.374;19.446;2022-08-19T13:52:56;12.00;;;4.60;;
18853;SDS011;9556;49.374;19.446;2022-08-19T13:55:23;14.30;;;4.93;;
18853;SDS011;9556;49.374;19.446;2022-08-19T13:57:51;10.05;;;4.45;;
18853;SDS011;9556;49.374;19.446;2022-08-19T14:00:19;9.57;;;4.47;;
18853;SDS011;9556;49.374;19.446;2022-08-19T14:02:48;9.93;;;4.00;;
18853;SDS011;9556;49.374;19.446;2022-08-19T14:05:17;17.15;;;4.88;;
18853;SDS011;9556;49.374;19.446;2022-08-19T14:07:46;12.07;;;4.55;;
18853;SDS011;9556;49.374;19.446;2022-08-19T14:10:14;14.43;;;4.55;;
18853;SDS011;9556;49.374;19.446;2022-08-19T14:12:41;14.45;;;4.50;;
18853;SDS011;9556;49.374;19.446;2022-08-19T14:15:09;12.65;;;3.67;;
18853;SDS011;9556;49.374;19.446;2022-08-19T14:17:37;11.52;;;4.10;;
18853;SDS011;9556;49.374;19.446;2022-08-19T14:20:05;15.88;;;4.03;;
18853;SDS011;9556;49.374;19.446;2022-08-19T14:22:33;19.33;;;4.15;;
18853;SDS011;9556;49.374;19.446;2022-08-19T14:25:02;12.82;;;4.70;;
18853;SDS011;9556;49.374;19.446;2022-08-19T14:27:30;10.63;;;4.38;;
18853;SDS011;9556;49.374;19.446;2022-08-19T14:29:57;16.13;;;4.53;;
18853;SDS011;9556;49.374;19.446;2022-08-19T14:32:24;13.50;;;4.53;;
18853;SDS011;9556;49.374;19.446;2022-08-19T14:34:52;15.43;;;4.93;;
18853;SDS011;9556;49.374;19.446;2022-08-19T14:37:19;14.80;;;4.95;;
18853;SDS011;9556;49.374;19.446;2022-08-19T14:39:47;11.18;;;4.43;;